Terminal Aerodrome Forecast
Issued by NWS

Home | Current Version | Previous Version | Text Only | Print | Product List | Glossary On
Versions: 1 2 3 4 5 6 7 8 9 10 11 12 13 14 15 16 17 18 19 20 21
263
FTUS41 KOKX 081127
TAFHPN
TAF
KHPN 081127Z 0812/0912 03012G18KT P6SM BKN025 BKN100
     FM081400 03013G20KT 5SM -SN BR BKN020 OVC040
     FM081500 02013G20KT 1SM -SN SCT008 OVC015
     FM082000 02009KT 3SM -SN SCT008 OVC015
     FM082300 02006KT 6SM BR VCSH OVC025
     FM090300 VRB04KT 6SM BR VCSH BKN025
      AMD NOT SKED=

USA.gov is the U.S. government's official web portal to all federal, state and local government web resources and services.